sensor_id;sensor_type;location;lat;lon;timestamp;temperature;humidity
34873;DHT22;21084;51.098;14.506;2022-11-28T00:01:43;2.90;99.90
34873;DHT22;21084;51.098;14.506;2022-11-28T00:04:14;3.00;99.90
34873;DHT22;21084;51.098;14.506;2022-11-28T00:06:44;2.90;99.90
34873;DHT22;21084;51.098;14.506;2022-11-28T00:09:14;2.90;99.90
34873;DHT22;21084;51.098;14.506;2022-11-28T00:11:43;2.90;99.90
34873;DHT22;21084;51.098;14.506;2022-11-28T00:14:17;2.80;99.90
34873;DHT22;21084;51.098;14.506;2022-11-28T00:16:46;2.80;99.90
34873;DHT22;21084;51.098;14.506;2022-11-28T00:19:15;2.80;99.90
34873;DHT22;21084;51.098;14.506;2022-11-28T00:21:44;2.80;99.90
34873;DHT22;21084;51.098;14.506;2022-11-28T00:24:12;2.70;99.90
34873;DHT22;21084;51.098;14.506;2022-11-28T00:26:40;2.70;99.90
34873;DHT22;21084;51.098;14.506;2022-11-28T00:29:09;2.70;99.90
34873;DHT22;21084;51.098;14.506;2022-11-28T00:31:39;2.70;99.90
34873;DHT22;21084;51.098;14.506;2022-11-28T00:34:10;2.70;99.90
34873;DHT22;21084;51.098;14.506;2022-11-28T00:36:41;2.70;99.90
34873;DHT22;21084;51.098;14.506;2022-11-28T00:39:09;2.80;99.90
34873;DHT22;21084;51.098;14.506;2022-11-28T00:41:37;2.80;99.90
34873;DHT22;21084;51.098;14.506;2022-11-28T00:44:06;2.70;99.90
34873;DHT22;21084;51.098;14.506;2022-11-28T00:46:34;2.80;99.90
34873;DHT22;21084;51.098;14.506;2022-11-28T00:49:02;2.90;99.90
34873;DHT22;21084;51.098;14.506;2022-11-28T00:51:32;3.00;99.90
34873;DHT22;21084;51.098;14.506;2022-11-28T00:54:02;3.00;99.90
34873;DHT22;21084;51.098;14.506;2022-11-28T00:56:32;3.00;99.90
34873;DHT22;21084;51.098;14.506;2022-11-28T00:59:01;3.00;99.90
34873;DHT22;21084;51.098;14.506;2022-11-28T01:01:32;2.90;99.90
34873;DHT22;21084;51.098;14.506;2022-11-28T01:04:01;3.00;99.90
34873;DHT22;21084;51.098;14.506;2022-11-28T01:06:30;3.00;99.90
34873;DHT22;21084;51.098;14.506;2022-11-28T01:08:59;3.00;99.90
34873;DHT22;21084;51.098;14.506;2022-11-28T01:11:29;3.00;99.90
34873;DHT22;21084;51.098;14.506;2022-11-28T01:13:58;3.00;99.90
34873;DHT22;21084;51.098;14.506;2022-11-28T01:16:28;3.00;99.90
34873;DHT22;21084;51.098;14.506;2022-11-28T01:18:56;3.00;99.90
34873;DHT22;21084;51.098;14.506;2022-11-28T01:21:24;3.00;99.90
34873;DHT22;21084;51.098;14.506;2022-11-28T01:23:52;3.10;99.90
34873;DHT22;21084;51.098;14.506;2022-11-28T01:26:22;3.10;99.90
34873;DHT22;21084;51.098;14.506;2022-11-28T01:28:52;3.20;99.90
34873;DHT22;21084;51.098;14.506;2022-11-28T01:31:21;3.30;99.90
34873;DHT22;21084;51.098;14.506;2022-11-28T01:33:50;3.20;99.90
34873;DHT22;21084;51.098;14.506;2022-11-28T01:36:18;3.10;99.90
34873;DHT22;21084;51.098;14.506;2022-11-28T01:38:47;3.10;99.90
34873;DHT22;21084;51.098;14.506;2022-11-28T01:41:16;3.10;99.90
34873;DHT22;21084;51.098;14.506;2022-11-28T01:46:40;3.20;99.90
34873;DHT22;21084;51.098;14.506;2022-11-28T01:49:09;3.10;99.90
34873;DHT22;21084;51.098;14.506;2022-11-28T01:51:39;3.20;99.90
34873;DHT22;21084;51.098;14.506;2022-11-28T01:54:09;3.30;99.90
34873;DHT22;21084;51.098;14.506;2022-11-28T01:56:39;3.20;99.90
34873;DHT22;21084;51.098;14.506;2022-11-28T01:59:08;3.20;99.90
34873;DHT22;21084;51.098;14.506;2022-11-28T02:01:37;3.20;99.90
34873;DHT22;21084;51.098;14.506;2022-11-28T02:04:07;3.20;99.90
34873;DHT22;21084;51.098;14.506;2022-11-28T02:06:35;3.20;99.90
34873;DHT22;21084;51.098;14.506;2022-11-28T02:09:04;3.20;99.90
34873;DHT22;21084;51.098;14.506;2022-11-28T02:11:53;3.20;99.90
34873;DHT22;21084;51.098;14.506;2022-11-28T02:14:29;3.20;99.90
34873;DHT22;21084;51.098;14.506;2022-11-28T02:17:05;3.20;99.90
34873;DHT22;21084;51.098;14.506;2022-11-28T02:19:50;3.10;99.90
34873;DHT22;21084;51.098;14.506;2022-11-28T02:22:21;3.20;99.90
34873;DHT22;21084;51.098;14.506;2022-11-28T02:24:58;3.10;99.90
34873;DHT22;21084;51.098;14.506;2022-11-28T02:27:34;3.00;99.90
34873;DHT22;21084;51.098;14.506;2022-11-28T02:30:13;3.00;99.90
34873;DHT22;21084;51.098;14.506;2022-11-28T02:32:55;3.10;99.90
34873;DHT22;21084;51.098;14.506;2022-11-28T02:35:29;3.00;99.90
34873;DHT22;21084;51.098;14.506;2022-11-28T02:38:01;2.90;99.90
34873;DHT22;21084;51.098;14.506;2022-11-28T02:40:34;3.00;99.90
34873;DHT22;21084;51.098;14.506;2022-11-28T02:43:04;2.90;99.90
34873;DHT22;21084;51.098;14.506;2022-11-28T02:45:36;2.90;99.90
34873;DHT22;21084;51.098;14.506;2022-11-28T02:48:11;2.80;99.90
34873;DHT22;21084;51.098;14.506;2022-11-28T02:50:41;2.80;99.90
34873;DHT22;21084;51.098;14.506;2022-11-28T02:53:12;2.80;99.90
34873;DHT22;21084;51.098;14.506;2022-11-28T02:55:42;2.80;99.90
34873;DHT22;21084;51.098;14.506;2022-11-28T02:58:11;2.90;99.90
34873;DHT22;21084;51.098;14.506;2022-11-28T03:00:40;2.90;99.90
34873;DHT22;21084;51.098;14.506;2022-11-28T03:03:18;2.90;99.90
34873;DHT22;21084;51.098;14.506;2022-11-28T03:05:50;2.80;99.90
34873;DHT22;21084;51.098;14.506;2022-11-28T03:08:55;2.80;99.90
34873;DHT22;21084;51.098;14.506;2022-11-28T03:11:31;2.70;99.90
34873;DHT22;21084;51.098;14.506;2022-11-28T03:14:02;2.70;99.90
34873;DHT22;21084;51.098;14.506;2022-11-28T03:16:33;2.70;99.90
34873;DHT22;21084;51.098;14.506;2022-11-28T03:19:06;2.60;99.90
34873;DHT22;21084;51.098;14.506;2022-11-28T03:21:38;2.70;99.90
34873;DHT22;21084;51.098;14.506;2022-11-28T03:24:09;2.70;99.90
34873;DHT22;21084;51.098;14.506;2022-11-28T03:26:42;2.70;99.90
34873;DHT22;21084;51.098;14.506;2022-11-28T03:29:12;2.60;99.90
34873;DHT22;21084;51.098;14.506;2022-11-28T03:31:44;2.60;99.90
34873;DHT22;21084;51.098;14.506;2022-11-28T03:34:18;2.50;99.90
34873;DHT22;21084;51.098;14.506;2022-11-28T03:36:48;2.40;99.90
34873;DHT22;21084;51.098;14.506;2022-11-28T03:39:21;2.40;99.90
34873;DHT22;21084;51.098;14.506;2022-11-28T03:41:51;2.40;99.90
34873;DHT22;21084;51.098;14.506;2022-11-28T03:44:22;2.40;99.90
34873;DHT22;21084;51.098;14.506;2022-11-28T03:46:53;2.40;99.90
34873;DHT22;21084;51.098;14.506;2022-11-28T03:49:25;2.50;99.90
34873;DHT22;21084;51.098;14.506;2022-11-28T03:51:54;2.50;99.90
34873;DHT22;21084;51.098;14.506;2022-11-28T03:54:26;2.50;99.90
34873;DHT22;21084;51.098;14.506;2022-11-28T03:56:59;2.50;99.90
34873;DHT22;21084;51.098;14.506;2022-11-28T03:59:29;2.40;99.90
34873;DHT22;21084;51.098;14.506;2022-11-28T04:02:01;2.40;99.90
34873;DHT22;21084;51.098;14.506;2022-11-28T04:04:34;2.40;99.90
34873;DHT22;21084;51.098;14.506;2022-11-28T04:07:04;2.40;99.90
34873;DHT22;21084;51.098;14.506;2022-11-28T04:09:36;2.40;99.90
34873;DHT22;21084;51.098;14.506;2022-11-28T04:12:09;2.30;99.90
34873;DHT22;21084;51.098;14.506;2022-11-28T04:14:38;2.30;99.90
34873;DHT22;21084;51.098;14.506;2022-11-28T04:17:09;2.30;99.90
34873;DHT22;21084;51.098;14.506;2022-11-28T04:19:42;2.30;99.90
34873;DHT22;21084;51.098;14.506;2022-11-28T04:22:14;2.20;99.90
34873;DHT22;21084;51.098;14.506;2022-11-28T04:24:46;2.30;99.90
34873;DHT22;21084;51.098;14.506;2022-11-28T04:27:16;2.20;99.90
34873;DHT22;21084;51.098;14.506;2022-11-28T04:29:51;2.10;99.90
34873;DHT22;21084;51.098;14.506;2022-11-28T04:32:21;2.10;99.90
34873;DHT22;21084;51.098;14.506;2022-11-28T04:34:53;2.00;99.90
34873;DHT22;21084;51.098;14.506;2022-11-28T04:37:23;2.00;99.90
34873;DHT22;21084;51.098;14.506;2022-11-28T04:39:52;1.90;99.90
34873;DHT22;21084;51.098;14.506;2022-11-28T04:42:22;1.90;99.90
34873;DHT22;21084;51.098;14.506;2022-11-28T04:44:52;1.90;99.90
34873;DHT22;21084;51.098;14.506;2022-11-28T04:47:22;1.90;99.90
34873;DHT22;21084;51.098;14.506;2022-11-28T04:50:42;1.90;99.90
34873;DHT22;21084;51.098;14.506;2022-11-28T04:53:17;1.90;99.90
34873;DHT22;21084;51.098;14.506;2022-11-28T04:55:50;2.00;99.90
34873;DHT22;21084;51.098;14.506;2022-11-28T04:58:21;2.10;99.90
34873;DHT22;21084;51.098;14.506;2022-11-28T05:00:50;2.10;99.90
34873;DHT22;21084;51.098;14.506;2022-11-28T05:03:20;2.20;99.90
34873;DHT22;21084;51.098;14.506;2022-11-28T05:05:50;2.20;99.90
34873;DHT22;21084;51.098;14.506;2022-11-28T05:08:19;2.30;99.90
34873;DHT22;21084;51.098;14.506;2022-11-28T05:10:47;2.30;99.90
34873;DHT22;21084;51.098;14.506;2022-11-28T05:13:15;2.20;99.90
34873;DHT22;21084;51.098;14.506;2022-11-28T05:15:45;2.20;99.90
34873;DHT22;21084;51.098;14.506;2022-11-28T05:18:13;2.20;99.90
34873;DHT22;21084;51.098;14.506;2022-11-28T05:20:41;2.20;99.90
34873;DHT22;21084;51.098;14.506;2022-11-28T05:23:11;2.20;99.90
34873;DHT22;21084;51.098;14.506;2022-11-28T05:25:40;2.20;99.90
34873;DHT22;21084;51.098;14.506;2022-11-28T05:28:08;2.20;99.90
34873;DHT22;21084;51.098;14.506;2022-11-28T05:30:36;2.20;99.90
34873;DHT22;21084;51.098;14.506;2022-11-28T05:33:05;2.20;99.90
34873;DHT22;21084;51.098;14.506;2022-11-28T05:35:33;2.30;99.90
34873;DHT22;21084;51.098;14.506;2022-11-28T05:38:01;2.30;99.90
34873;DHT22;21084;51.098;14.506;2022-11-28T05:40:36;2.30;99.90
34873;DHT22;21084;51.098;14.506;2022-11-28T05:43:10;2.30;99.90
34873;DHT22;21084;51.098;14.506;2022-11-28T05:45:38;2.30;99.90
34873;DHT22;21084;51.098;14.506;2022-11-28T05:48:06;2.40;99.90
34873;DHT22;21084;51.098;14.506;2022-11-28T05:50:37;2.40;99.90
34873;DHT22;21084;51.098;14.506;2022-11-28T05:53:05;2.40;99.90
34873;DHT22;21084;51.098;14.506;2022-11-28T05:55:34;2.40;99.90
34873;DHT22;21084;51.098;14.506;2022-11-28T05:58:05;2.40;99.90
34873;DHT22;21084;51.098;14.506;2022-11-28T06:00:33;2.40;99.90
34873;DHT22;21084;51.098;14.506;2022-11-28T06:03:02;2.50;99.90
34873;DHT22;21084;51.098;14.506;2022-11-28T06:05:30;2.60;99.90
34873;DHT22;21084;51.098;14.506;2022-11-28T06:08:09;2.60;99.90
34873;DHT22;21084;51.098;14.506;2022-11-28T06:10:38;2.70;99.90
34873;DHT22;21084;51.098;14.506;2022-11-28T06:13:08;2.70;99.90
34873;DHT22;21084;51.098;14.506;2022-11-28T06:15:36;2.80;99.90
34873;DHT22;21084;51.098;14.506;2022-11-28T06:18:04;2.80;99.90
34873;DHT22;21084;51.098;14.506;2022-11-28T06:20:33;2.80;99.90
34873;DHT22;21084;51.098;14.506;2022-11-28T06:23:01;2.80;99.90
34873;DHT22;21084;51.098;14.506;2022-11-28T06:25:29;2.80;99.90
34873;DHT22;21084;51.098;14.506;2022-11-28T06:27:57;2.80;99.90
34873;DHT22;21084;51.098;14.506;2022-11-28T06:30:27;2.80;99.90
34873;DHT22;21084;51.098;14.506;2022-11-28T06:32:55;2.70;99.90
34873;DHT22;21084;51.098;14.506;2022-11-28T06:35:23;2.80;99.90
34873;DHT22;21084;51.098;14.506;2022-11-28T06:37:52;2.70;99.90
34873;DHT22;21084;51.098;14.506;2022-11-28T06:40:20;2.70;99.90
34873;DHT22;21084;51.098;14.506;2022-11-28T06:42:48;2.80;99.90
34873;DHT22;21084;51.098;14.506;2022-11-28T06:45:16;2.90;99.90
34873;DHT22;21084;51.098;14.506;2022-11-28T06:47:46;2.80;99.90
34873;DHT22;21084;51.098;14.506;2022-11-28T06:50:15;2.90;99.90
34873;DHT22;21084;51.098;14.506;2022-11-28T06:52:43;2.90;99.90
34873;DHT22;21084;51.098;14.506;2022-11-28T06:55:12;3.00;99.90
34873;DHT22;21084;51.098;14.506;2022-11-28T06:57:40;3.00;99.90
34873;DHT22;21084;51.098;14.506;2022-11-28T07:00:08;3.10;99.90
34873;DHT22;21084;51.098;14.506;2022-11-28T07:02:36;3.10;99.90
34873;DHT22;21084;51.098;14.506;2022-11-28T07:05:06;3.10;99.90
34873;DHT22;21084;51.098;14.506;2022-11-28T07:07:34;3.10;99.90
34873;DHT22;21084;51.098;14.506;2022-11-28T07:10:19;3.20;99.90
34873;DHT22;21084;51.098;14.506;2022-11-28T07:12:51;3.20;99.90
34873;DHT22;21084;51.098;14.506;2022-11-28T07:15:19;3.30;99.90
34873;DHT22;21084;51.098;14.506;2022-11-28T07:17:48;3.30;99.90
34873;DHT22;21084;51.098;14.506;2022-11-28T07:20:18;3.30;99.90
34873;DHT22;21084;51.098;14.506;2022-11-28T07:22:47;3.40;99.90
34873;DHT22;21084;51.098;14.506;2022-11-28T07:25:15;3.40;99.90
34873;DHT22;21084;51.098;14.506;2022-11-28T07:27:45;3.40;99.90
34873;DHT22;21084;51.098;14.506;2022-11-28T07:30:13;3.40;99.90
34873;DHT22;21084;51.098;14.506;2022-11-28T07:32:42;3.50;99.90
34873;DHT22;21084;51.098;14.506;2022-11-28T07:35:10;3.50;99.90
34873;DHT22;21084;51.098;14.506;2022-11-28T07:37:39;3.50;99.90
34873;DHT22;21084;51.098;14.506;2022-11-28T07:40:07;3.50;99.90
34873;DHT22;21084;51.098;14.506;2022-11-28T07:42:36;3.60;99.90
34873;DHT22;21084;51.098;14.506;2022-11-28T07:45:04;3.60;99.90
34873;DHT22;21084;51.098;14.506;2022-11-28T07:47:33;3.70;99.90
34873;DHT22;21084;51.098;14.506;2022-11-28T07:50:01;3.80;99.90
34873;DHT22;21084;51.098;14.506;2022-11-28T07:52:30;3.80;99.90
34873;DHT22;21084;51.098;14.506;2022-11-28T07:55:00;3.80;99.90
34873;DHT22;21084;51.098;14.506;2022-11-28T07:57:28;3.90;99.90
34873;DHT22;21084;51.098;14.506;2022-11-28T07:59:57;3.90;99.90
34873;DHT22;21084;51.098;14.506;2022-11-28T08:02:25;4.00;99.90
34873;DHT22;21084;51.098;14.506;2022-11-28T08:04:58;4.00;99.90
34873;DHT22;21084;51.098;14.506;2022-11-28T08:07:26;4.00;99.90
34873;DHT22;21084;51.098;14.506;2022-11-28T08:09:55;4.10;99.90
34873;DHT22;21084;51.098;14.506;2022-11-28T08:12:24;4.20;99.90
34873;DHT22;21084;51.098;14.506;2022-11-28T08:14:52;4.10;99.90
34873;DHT22;21084;51.098;14.506;2022-11-28T08:17:21;4.30;99.90
34873;DHT22;21084;51.098;14.506;2022-11-28T08:19:49;4.30;99.90
34873;DHT22;21084;51.098;14.506;2022-11-28T08:22:22;4.30;99.90
34873;DHT22;21084;51.098;14.506;2022-11-28T08:24:50;4.40;99.90
34873;DHT22;21084;51.098;14.506;2022-11-28T08:27:18;4.40;99.90
34873;DHT22;21084;51.098;14.506;2022-11-28T08:29:48;4.50;99.90
34873;DHT22;21084;51.098;14.506;2022-11-28T08:32:19;4.50;99.90
34873;DHT22;21084;51.098;14.506;2022-11-28T08:34:47;4.60;99.90
34873;DHT22;21084;51.098;14.506;2022-11-28T08:37:16;4.60;99.90
34873;DHT22;21084;51.098;14.506;2022-11-28T08:39:44;4.70;99.90
34873;DHT22;21084;51.098;14.506;2022-11-28T08:42:12;4.70;99.90
34873;DHT22;21084;51.098;14.506;2022-11-28T08:44:40;4.70;99.90
34873;DHT22;21084;51.098;14.506;2022-11-28T08:47:10;4.80;99.90
34873;DHT22;21084;51.098;14.506;2022-11-28T08:49:38;4.80;99.90
34873;DHT22;21084;51.098;14.506;2022-11-28T08:52:06;4.90;99.90
34873;DHT22;21084;51.098;14.506;2022-11-28T08:54:35;4.90;99.90
34873;DHT22;21084;51.098;14.506;2022-11-28T08:57:03;4.90;99.90
34873;DHT22;21084;51.098;14.506;2022-11-28T08:59:31;5.00;99.90
34873;DHT22;21084;51.098;14.506;2022-11-28T09:01:59;5.10;99.90
34873;DHT22;21084;51.098;14.506;2022-11-28T09:04:29;5.10;99.90
34873;DHT22;21084;51.098;14.506;2022-11-28T09:06:57;5.10;99.90
34873;DHT22;21084;51.098;14.506;2022-11-28T09:09:25;5.20;99.90
34873;DHT22;21084;51.098;14.506;2022-11-28T09:11:58;5.20;99.90
34873;DHT22;21084;51.098;14.506;2022-11-28T09:14:26;5.40;99.90
34873;DHT22;21084;51.098;14.506;2022-11-28T09:16:54;5.50;99.90
34873;DHT22;21084;51.098;14.506;2022-11-28T09:19:22;5.60;99.90
34873;DHT22;21084;51.098;14.506;2022-11-28T09:21:52;5.70;99.90
34873;DHT22;21084;51.098;14.506;2022-11-28T09:24:23;5.70;99.90
34873;DHT22;21084;51.098;14.506;2022-11-28T09:26:51;5.80;99.90
34873;DHT22;21084;51.098;14.506;2022-11-28T09:29:19;5.90;99.90
34873;DHT22;21084;51.098;14.506;2022-11-28T09:31:48;5.90;99.90
34873;DHT22;21084;51.098;14.506;2022-11-28T09:34:16;6.00;99.90
34873;DHT22;21084;51.098;14.506;2022-11-28T09:36:44;6.00;99.90
34873;DHT22;21084;51.098;14.506;2022-11-28T09:39:14;6.20;99.90
34873;DHT22;21084;51.098;14.506;2022-11-28T09:41:43;6.20;99.90
34873;DHT22;21084;51.098;14.506;2022-11-28T09:44:18;6.20;99.90
34873;DHT22;21084;51.098;14.506;2022-11-28T09:46:48;6.10;99.90
34873;DHT22;21084;51.098;14.506;2022-11-28T09:49:21;6.20;99.90
34873;DHT22;21084;51.098;14.506;2022-11-28T09:51:51;6.20;99.90
34873;DHT22;21084;51.098;14.506;2022-11-28T09:54:24;6.30;99.90
34873;DHT22;21084;51.098;14.506;2022-11-28T09:56:54;6.40;99.90
34873;DHT22;21084;51.098;14.506;2022-11-28T09:59:24;6.60;99.90
34873;DHT22;21084;51.098;14.506;2022-11-28T10:01:55;6.30;99.90
34873;DHT22;21084;51.098;14.506;2022-11-28T10:04:28;6.20;99.90
34873;DHT22;21084;51.098;14.506;2022-11-28T10:07:00;6.20;99.90
34873;DHT22;21084;51.098;14.506;2022-11-28T10:09:33;6.40;99.90
34873;DHT22;21084;51.098;14.506;2022-11-28T10:12:06;6.50;99.90
34873;DHT22;21084;51.098;14.506;2022-11-28T10:14:50;6.70;99.90
34873;DHT22;21084;51.098;14.506;2022-11-28T10:17:24;6.90;99.90
34873;DHT22;21084;51.098;14.506;2022-11-28T10:19:59;7.00;99.90
34873;DHT22;21084;51.098;14.506;2022-11-28T10:22:32;7.30;99.90
34873;DHT22;21084;51.098;14.506;2022-11-28T10:25:05;7.40;99.90
34873;DHT22;21084;51.098;14.506;2022-11-28T10:27:38;7.50;99.90
34873;DHT22;21084;51.098;14.506;2022-11-28T10:30:07;7.40;99.90
34873;DHT22;21084;51.098;14.506;2022-11-28T10:32:37;7.30;99.90
34873;DHT22;21084;51.098;14.506;2022-11-28T10:35:20;7.20;99.90
34873;DHT22;21084;51.098;14.506;2022-11-28T10:37:54;7.10;99.90
34873;DHT22;21084;51.098;14.506;2022-11-28T10:40:26;7.20;99.90
34873;DHT22;21084;51.098;14.506;2022-11-28T10:42:58;6.90;99.90
34873;DHT22;21084;51.098;14.506;2022-11-28T10:45:30;6.90;99.90
34873;DHT22;21084;51.098;14.506;2022-11-28T10:48:04;6.80;99.90
34873;DHT22;21084;51.098;14.506;2022-11-28T10:50:55;6.60;99.90
34873;DHT22;21084;51.098;14.506;2022-11-28T10:53:30;6.60;99.90
34873;DHT22;21084;51.098;14.506;2022-11-28T10:56:07;6.40;99.90
34873;DHT22;21084;51.098;14.506;2022-11-28T10:58:41;6.20;99.90
34873;DHT22;21084;51.098;14.506;2022-11-28T11:01:14;6.10;99.90
34873;DHT22;21084;51.098;14.506;2022-11-28T11:03:43;6.10;99.90
34873;DHT22;21084;51.098;14.506;2022-11-28T11:06:11;6.10;99.90
34873;DHT22;21084;51.098;14.506;2022-11-28T11:08:39;6.10;99.90
34873;DHT22;21084;51.098;14.506;2022-11-28T11:11:15;6.10;99.90
34873;DHT22;21084;51.098;14.506;2022-11-28T11:13:55;6.10;99.90
34873;DHT22;21084;51.098;14.506;2022-11-28T11:19:09;6.10;99.90
34873;DHT22;21084;51.098;14.506;2022-11-28T11:21:56;6.40;99.90
34873;DHT22;21084;51.098;14.506;2022-11-28T11:24:25;6.30;99.90
34873;DHT22;21084;51.098;14.506;2022-11-28T11:27:01;6.40;99.90
34873;DHT22;21084;51.098;14.506;2022-11-28T11:29:31;6.50;99.90
34873;DHT22;21084;51.098;14.506;2022-11-28T11:32:01;6.50;99.90
34873;DHT22;21084;51.098;14.506;2022-11-28T11:34:34;6.60;99.90
34873;DHT22;21084;51.098;14.506;2022-11-28T11:37:20;6.60;99.90
34873;DHT22;21084;51.098;14.506;2022-11-28T11:39:48;6.70;99.90
34873;DHT22;21084;51.098;14.506;2022-11-28T11:42:22;6.70;99.90
34873;DHT22;21084;51.098;14.506;2022-11-28T11:44:52;6.80;99.90
34873;DHT22;21084;51.098;14.506;2022-11-28T11:47:37;6.90;99.90
34873;DHT22;21084;51.098;14.506;2022-11-28T11:50:13;7.00;99.90
34873;DHT22;21084;51.098;14.506;2022-11-28T11:52:41;6.70;99.90
34873;DHT22;21084;51.098;14.506;2022-11-28T11:55:10;6.50;99.90
34873;DHT22;21084;51.098;14.506;2022-11-28T11:57:45;6.60;99.90
34873;DHT22;21084;51.098;14.506;2022-11-28T12:00:15;6.40;99.90
34873;DHT22;21084;51.098;14.506;2022-11-28T12:02:48;6.40;99.90
34873;DHT22;21084;51.098;14.506;2022-11-28T12:05:18;6.50;99.90
34873;DHT22;21084;51.098;14.506;2022-11-28T12:07:49;6.60;99.90
34873;DHT22;21084;51.098;14.506;2022-11-28T12:10:21;6.70;99.90
34873;DHT22;21084;51.098;14.506;2022-11-28T12:12:53;6.80;99.90
34873;DHT22;21084;51.098;14.506;2022-11-28T12:15:23;6.90;99.90
34873;DHT22;21084;51.098;14.506;2022-11-28T12:17:56;6.70;99.90
34873;DHT22;21084;51.098;14.506;2022-11-28T12:20:30;6.50;99.90
34873;DHT22;21084;51.098;14.506;2022-11-28T12:23:02;6.40;99.90
34873;DHT22;21084;51.098;14.506;2022-11-28T12:25:42;6.40;99.90
34873;DHT22;21084;51.098;14.506;2022-11-28T12:28:14;6.20;99.90
34873;DHT22;21084;51.098;14.506;2022-11-28T12:30:52;6.20;99.90
34873;DHT22;21084;51.098;14.506;2022-11-28T12:33:27;6.10;99.90
34873;DHT22;21084;51.098;14.506;2022-11-28T12:36:02;6.20;99.90
34873;DHT22;21084;51.098;14.506;2022-11-28T12:38:34;6.20;99.90
34873;DHT22;21084;51.098;14.506;2022-11-28T12:41:09;6.20;99.90
34873;DHT22;21084;51.098;14.506;2022-11-28T12:43:46;6.10;99.90
34873;DHT22;21084;51.098;14.506;2022-11-28T12:46:19;6.10;99.90
34873;DHT22;21084;51.098;14.506;2022-11-28T12:48:52;6.10;99.90
34873;DHT22;21084;51.098;14.506;2022-11-28T12:51:29;6.10;99.90
34873;DHT22;21084;51.098;14.506;2022-11-28T12:54:20;6.00;99.90
34873;DHT22;21084;51.098;14.506;2022-11-28T12:56:53;5.90;99.90
34873;DHT22;21084;51.098;14.506;2022-11-28T12:59:26;6.00;99.90
34873;DHT22;21084;51.098;14.506;2022-11-28T13:01:59;6.00;99.90
34873;DHT22;21084;51.098;14.506;2022-11-28T13:04:42;6.00;99.90
34873;DHT22;21084;51.098;14.506;2022-11-28T13:07:17;5.90;99.90
34873;DHT22;21084;51.098;14.506;2022-11-28T13:09:53;5.90;99.90
34873;DHT22;21084;51.098;14.506;2022-11-28T13:12:24;5.90;99.90
34873;DHT22;21084;51.098;14.506;2022-11-28T13:14:55;5.90;99.90
34873;DHT22;21084;51.098;14.506;2022-11-28T13:17:28;6.00;99.90
34873;DHT22;21084;51.098;14.506;2022-11-28T13:20:04;6.10;99.90
34873;DHT22;21084;51.098;14.506;2022-11-28T13:22:38;6.00;99.90
34873;DHT22;21084;51.098;14.506;2022-11-28T13:25:12;6.10;99.90
34873;DHT22;21084;51.098;14.506;2022-11-28T13:27:47;6.00;99.90
34873;DHT22;21084;51.098;14.506;2022-11-28T13:30:20;6.10;99.90
34873;DHT22;21084;51.098;14.506;2022-11-28T13:32:50;6.10;99.90
34873;DHT22;21084;51.098;14.506;2022-11-28T13:35:20;6.10;99.90
34873;DHT22;21084;51.098;14.506;2022-11-28T13:37:51;6.10;99.90
34873;DHT22;21084;51.098;14.506;2022-11-28T13:40:44;6.10;99.90
34873;DHT22;21084;51.098;14.506;2022-11-28T13:43:15;6.10;99.90
34873;DHT22;21084;51.098;14.506;2022-11-28T13:45:46;6.00;99.90
34873;DHT22;21084;51.098;14.506;2022-11-28T13:51:22;6.00;99.90
34873;DHT22;21084;51.098;14.506;2022-11-28T13:56:44;5.80;99.90
34873;DHT22;21084;51.098;14.506;2022-11-28T13:59:14;5.70;99.90
34873;DHT22;21084;51.098;14.506;2022-11-28T14:01:45;5.60;99.90
34873;DHT22;21084;51.098;14.506;2022-11-28T14:04:14;5.50;99.90
34873;DHT22;21084;51.098;14.506;2022-11-28T14:06:43;5.60;99.90
34873;DHT22;21084;51.098;14.506;2022-11-28T14:09:21;5.50;99.90
34873;DHT22;21084;51.098;14.506;2022-11-28T14:11:57;5.50;99.90
34873;DHT22;21084;51.098;14.506;2022-11-28T14:17:25;5.40;99.90
34873;DHT22;21084;51.098;14.506;2022-11-28T14:19:59;5.30;99.90
34873;DHT22;21084;51.098;14.506;2022-11-28T14:22:33;5.30;99.90
34873;DHT22;21084;51.098;14.506;2022-11-28T14:25:07;5.40;99.90
34873;DHT22;21084;51.098;14.506;2022-11-28T14:27:38;5.30;99.90
34873;DHT22;21084;51.098;14.506;2022-11-28T14:30:19;5.30;99.90
34873;DHT22;21084;51.098;14.506;2022-11-28T14:32:54;5.30;99.90
34873;DHT22;21084;51.098;14.506;2022-11-28T14:43:30;5.10;99.90
34873;DHT22;21084;51.098;14.506;2022-11-28T14:54:41;5.10;99.90
34873;DHT22;21084;51.098;14.506;2022-11-28T14:57:11;5.10;99.90
34873;DHT22;21084;51.098;14.506;2022-11-28T14:59:39;5.00;99.90
34873;DHT22;21084;51.098;14.506;2022-11-28T15:02:15;5.10;99.90
34873;DHT22;21084;51.098;14.506;2022-11-28T15:04:49;5.00;99.90
34873;DHT22;21084;51.098;14.506;2022-11-28T15:07:21;5.00;99.90
34873;DHT22;21084;51.098;14.506;2022-11-28T15:09:53;5.00;99.90
34873;DHT22;21084;51.098;14.506;2022-11-28T15:12:34;5.00;99.90
34873;DHT22;21084;51.098;14.506;2022-11-28T15:15:04;5.00;99.90
34873;DHT22;21084;51.098;14.506;2022-11-28T15:17:33;5.00;99.90
34873;DHT22;21084;51.098;14.506;2022-11-28T15:20:02;4.90;99.90
34873;DHT22;21084;51.098;14.506;2022-11-28T15:22:32;4.90;99.90
34873;DHT22;21084;51.098;14.506;2022-11-28T15:25:18;4.90;99.90
34873;DHT22;21084;51.098;14.506;2022-11-28T15:27:46;4.90;99.90
34873;DHT22;21084;51.098;14.506;2022-11-28T15:30:15;4.90;99.90
34873;DHT22;21084;51.098;14.506;2022-11-28T15:32:44;4.90;99.90
34873;DHT22;21084;51.098;14.506;2022-11-28T15:35:13;4.90;99.90
34873;DHT22;21084;51.098;14.506;2022-11-28T15:37:45;4.80;99.90
34873;DHT22;21084;51.098;14.506;2022-11-28T15:40:25;4.80;99.90
34873;DHT22;21084;51.098;14.506;2022-11-28T15:42:55;4.80;99.90
34873;DHT22;21084;51.098;14.506;2022-11-28T15:45:28;4.80;99.90
34873;DHT22;21084;51.098;14.506;2022-11-28T15:47:57;4.80;99.90
34873;DHT22;21084;51.098;14.506;2022-11-28T15:50:26;4.80;99.90
34873;DHT22;21084;51.098;14.506;2022-11-28T15:52:55;4.80;99.90
34873;DHT22;21084;51.098;14.506;2022-11-28T15:55:26;4.70;99.90
34873;DHT22;21084;51.098;14.506;2022-11-28T15:58:09;4.70;99.90
34873;DHT22;21084;51.098;14.506;2022-11-28T16:00:38;4.70;99.90
34873;DHT22;21084;51.098;14.506;2022-11-28T16:03:09;4.80;99.90
34873;DHT22;21084;51.098;14.506;2022-11-28T16:05:47;4.80;99.90
34873;DHT22;21084;51.098;14.506;2022-11-28T16:08:19;4.80;99.90
34873;DHT22;21084;51.098;14.506;2022-11-28T16:10:50;4.80;99.90
34873;DHT22;21084;51.098;14.506;2022-11-28T16:13:19;4.80;99.90
34873;DHT22;21084;51.098;14.506;2022-11-28T16:15:49;4.80;99.90
34873;DHT22;21084;51.098;14.506;2022-11-28T16:18:19;4.80;99.90
34873;DHT22;21084;51.098;14.506;2022-11-28T16:20:47;4.80;99.90
34873;DHT22;21084;51.098;14.506;2022-11-28T16:23:16;4.80;99.90
34873;DHT22;21084;51.098;14.506;2022-11-28T16:25:58;4.80;99.90
34873;DHT22;21084;51.098;14.506;2022-11-28T16:28:27;4.80;99.90